sensor_id;sensor_type;location;lat;lon;timestamp;P1;durP1;ratioP1;P2;durP2;ratioP2
78648;SDS011;67962;47.310;9.642;2023-06-10T00:00:36;4.35;;;3.13;;
78648;SDS011;67962;47.310;9.642;2023-06-10T00:03:01;5.78;;;2.97;;
78648;SDS011;67962;47.310;9.642;2023-06-10T00:05:27;5.75;;;3.05;;
78648;SDS011;67962;47.310;9.642;2023-06-10T00:07:56;5.15;;;3.42;;
78648;SDS011;67962;47.310;9.642;2023-06-10T00:10:22;4.15;;;2.90;;
78648;SDS011;67962;47.310;9.642;2023-06-10T00:12:49;5.70;;;3.25;;
78648;SDS011;67962;47.310;9.642;2023-06-10T00:15:16;7.75;;;3.25;;
78648;SDS011;67962;47.310;9.642;2023-06-10T00:17:42;5.97;;;3.10;;
78648;SDS011;67962;47.310;9.642;2023-06-10T00:20:08;4.95;;;3.20;;
78648;SDS011;67962;47.310;9.642;2023-06-10T00:22:37;5.15;;;2.90;;
78648;SDS011;67962;47.310;9.642;2023-06-10T00:25:05;3.53;;;2.97;;
78648;SDS011;67962;47.310;9.642;2023-06-10T00:27:32;5.47;;;3.05;;
78648;SDS011;67962;47.310;9.642;2023-06-10T00:30:03;5.80;;;2.78;;
78648;SDS011;67962;47.310;9.642;2023-06-10T00:32:32;4.20;;;3.03;;
78648;SDS011;67962;47.310;9.642;2023-06-10T00:34:58;4.65;;;2.80;;
78648;SDS011;67962;47.310;9.642;2023-06-10T00:37:24;5.43;;;3.30;;
78648;SDS011;67962;47.310;9.642;2023-06-10T00:39:49;4.57;;;2.83;;
78648;SDS011;67962;47.310;9.642;2023-06-10T00:42:15;4.32;;;2.92;;
78648;SDS011;67962;47.310;9.642;2023-06-10T00:44:41;3.67;;;2.80;;
78648;SDS011;67962;47.310;9.642;2023-06-10T00:47:07;5.63;;;3.10;;
78648;SDS011;67962;47.310;9.642;2023-06-10T00:49:33;5.00;;;3.00;;
78648;SDS011;67962;47.310;9.642;2023-06-10T00:51:59;4.75;;;3.17;;
78648;SDS011;67962;47.310;9.642;2023-06-10T00:54:27;7.20;;;2.88;;
78648;SDS011;67962;47.310;9.642;2023-06-10T00:56:53;6.85;;;3.20;;
78648;SDS011;67962;47.310;9.642;2023-06-10T00:59:19;4.85;;;3.03;;
78648;SDS011;67962;47.310;9.642;2023-06-10T01:01:45;6.50;;;3.25;;
78648;SDS011;67962;47.310;9.642;2023-06-10T01:04:14;5.05;;;3.03;;
78648;SDS011;67962;47.310;9.642;2023-06-10T01:06:50;4.78;;;2.92;;
78648;SDS011;67962;47.310;9.642;2023-06-10T01:12:16;6.88;;;3.10;;
78648;SDS011;67962;47.310;9.642;2023-06-10T01:14:50;4.22;;;2.95;;
78648;SDS011;67962;47.310;9.642;2023-06-10T01:17:17;4.63;;;3.30;;
78648;SDS011;67962;47.310;9.642;2023-06-10T01:19:43;6.35;;;3.25;;
78648;SDS011;67962;47.310;9.642;2023-06-10T01:22:09;6.72;;;3.38;;
78648;SDS011;67962;47.310;9.642;2023-06-10T01:24:36;5.07;;;3.40;;
78648;SDS011;67962;47.310;9.642;2023-06-10T01:27:05;8.05;;;3.40;;
78648;SDS011;67962;47.310;9.642;2023-06-10T01:29:36;5.32;;;3.38;;
78648;SDS011;67962;47.310;9.642;2023-06-10T01:32:06;4.07;;;2.88;;
78648;SDS011;67962;47.310;9.642;2023-06-10T01:34:37;4.38;;;2.67;;
78648;SDS011;67962;47.310;9.642;2023-06-10T01:37:07;5.28;;;2.80;;
78648;SDS011;67962;47.310;9.642;2023-06-10T01:39:36;9.55;;;3.03;;
78648;SDS011;67962;47.310;9.642;2023-06-10T01:42:03;5.75;;;3.22;;
78648;SDS011;67962;47.310;9.642;2023-06-10T01:44:31;8.50;;;2.92;;
78648;SDS011;67962;47.310;9.642;2023-06-10T01:46:57;3.88;;;2.80;;
78648;SDS011;67962;47.310;9.642;2023-06-10T01:49:23;5.95;;;3.40;;
78648;SDS011;67962;47.310;9.642;2023-06-10T01:51:49;4.55;;;2.95;;
78648;SDS011;67962;47.310;9.642;2023-06-10T01:54:15;6.25;;;3.40;;
78648;SDS011;67962;47.310;9.642;2023-06-10T01:56:41;4.97;;;3.30;;
78648;SDS011;67962;47.310;9.642;2023-06-10T01:59:07;5.25;;;3.17;;
78648;SDS011;67962;47.310;9.642;2023-06-10T02:01:33;4.85;;;3.00;;
78648;SDS011;67962;47.310;9.642;2023-06-10T02:03:58;5.70;;;3.38;;
78648;SDS011;67962;47.310;9.642;2023-06-10T02:06:24;4.43;;;2.78;;
78648;SDS011;67962;47.310;9.642;2023-06-10T02:08:50;5.68;;;3.40;;
78648;SDS011;67962;47.310;9.642;2023-06-10T02:11:15;4.65;;;3.15;;
78648;SDS011;67962;47.310;9.642;2023-06-10T02:13:41;5.80;;;3.67;;
78648;SDS011;67962;47.310;9.642;2023-06-10T02:16:07;5.35;;;3.50;;
78648;SDS011;67962;47.310;9.642;2023-06-10T02:18:32;5.63;;;3.17;;
78648;SDS011;67962;47.310;9.642;2023-06-10T02:20:58;4.47;;;3.10;;
78648;SDS011;67962;47.310;9.642;2023-06-10T02:23:24;4.00;;;2.88;;
78648;SDS011;67962;47.310;9.642;2023-06-10T02:25:50;4.82;;;2.90;;
78648;SDS011;67962;47.310;9.642;2023-06-10T02:28:16;4.22;;;3.15;;
78648;SDS011;67962;47.310;9.642;2023-06-10T02:30:41;6.05;;;3.78;;
78648;SDS011;67962;47.310;9.642;2023-06-10T02:33:07;6.78;;;3.28;;
78648;SDS011;67962;47.310;9.642;2023-06-10T02:35:37;4.35;;;2.80;;
78648;SDS011;67962;47.310;9.642;2023-06-10T02:38:04;5.95;;;3.28;;
78648;SDS011;67962;47.310;9.642;2023-06-10T02:40:29;4.70;;;3.30;;
78648;SDS011;67962;47.310;9.642;2023-06-10T02:42:55;6.25;;;3.35;;
78648;SDS011;67962;47.310;9.642;2023-06-10T02:45:22;4.93;;;3.20;;
78648;SDS011;67962;47.310;9.642;2023-06-10T02:47:47;6.63;;;3.13;;
78648;SDS011;67962;47.310;9.642;2023-06-10T02:50:13;4.30;;;3.20;;
78648;SDS011;67962;47.310;9.642;2023-06-10T02:52:39;5.53;;;3.35;;
78648;SDS011;67962;47.310;9.642;2023-06-10T02:55:05;4.07;;;3.05;;
78648;SDS011;67962;47.310;9.642;2023-06-10T02:57:31;11.73;;;3.85;;
78648;SDS011;67962;47.310;9.642;2023-06-10T02:59:58;5.30;;;3.53;;
78648;SDS011;67962;47.310;9.642;2023-06-10T03:02:24;6.93;;;3.08;;
78648;SDS011;67962;47.310;9.642;2023-06-10T03:04:57;5.43;;;3.38;;
78648;SDS011;67962;47.310;9.642;2023-06-10T03:07:23;4.90;;;3.50;;
78648;SDS011;67962;47.310;9.642;2023-06-10T03:09:49;4.88;;;3.22;;
78648;SDS011;67962;47.310;9.642;2023-06-10T03:12:15;6.05;;;3.20;;
78648;SDS011;67962;47.310;9.642;2023-06-10T03:14:41;5.45;;;3.58;;
78648;SDS011;67962;47.310;9.642;2023-06-10T03:17:07;5.53;;;3.47;;
78648;SDS011;67962;47.310;9.642;2023-06-10T03:19:33;5.00;;;3.20;;
78648;SDS011;67962;47.310;9.642;2023-06-10T03:24:38;4.50;;;3.03;;
78648;SDS011;67962;47.310;9.642;2023-06-10T03:27:08;7.47;;;3.30;;
78648;SDS011;67962;47.310;9.642;2023-06-10T03:29:34;4.13;;;3.20;;
78648;SDS011;67962;47.310;9.642;2023-06-10T03:32:01;11.65;;;3.63;;
78648;SDS011;67962;47.310;9.642;2023-06-10T03:34:27;5.82;;;3.42;;
78648;SDS011;67962;47.310;9.642;2023-06-10T03:36:52;5.53;;;3.30;;
78648;SDS011;67962;47.310;9.642;2023-06-10T03:39:18;7.00;;;3.42;;
78648;SDS011;67962;47.310;9.642;2023-06-10T03:41:44;4.93;;;3.55;;
78648;SDS011;67962;47.310;9.642;2023-06-10T03:44:10;4.85;;;3.30;;
78648;SDS011;67962;47.310;9.642;2023-06-10T03:46:35;5.43;;;3.22;;
78648;SDS011;67962;47.310;9.642;2023-06-10T03:49:01;5.85;;;3.58;;
78648;SDS011;67962;47.310;9.642;2023-06-10T03:51:28;4.05;;;3.17;;
78648;SDS011;67962;47.310;9.642;2023-06-10T03:53:54;5.53;;;3.30;;
78648;SDS011;67962;47.310;9.642;2023-06-10T03:56:20;4.25;;;3.17;;
78648;SDS011;67962;47.310;9.642;2023-06-10T03:58:45;5.03;;;3.45;;
78648;SDS011;67962;47.310;9.642;2023-06-10T04:01:11;5.13;;;3.15;;
78648;SDS011;67962;47.310;9.642;2023-06-10T04:03:38;5.63;;;3.20;;
78648;SDS011;67962;47.310;9.642;2023-06-10T04:06:04;9.77;;;3.55;;
78648;SDS011;67962;47.310;9.642;2023-06-10T04:08:30;4.13;;;3.10;;
78648;SDS011;67962;47.310;9.642;2023-06-10T04:10:57;7.70;;;3.38;;
78648;SDS011;67962;47.310;9.642;2023-06-10T04:13:23;5.05;;;3.28;;
78648;SDS011;67962;47.310;9.642;2023-06-10T04:15:49;5.03;;;3.28;;
78648;SDS011;67962;47.310;9.642;2023-06-10T04:18:16;4.70;;;3.47;;
78648;SDS011;67962;47.310;9.642;2023-06-10T04:20:41;6.63;;;3.90;;
78648;SDS011;67962;47.310;9.642;2023-06-10T04:23:07;5.63;;;3.83;;
78648;SDS011;67962;47.310;9.642;2023-06-10T04:25:33;5.45;;;3.72;;
78648;SDS011;67962;47.310;9.642;2023-06-10T04:27:59;4.80;;;3.15;;
78648;SDS011;67962;47.310;9.642;2023-06-10T04:30:25;5.40;;;3.80;;
78648;SDS011;67962;47.310;9.642;2023-06-10T04:32:50;6.35;;;3.80;;
78648;SDS011;67962;47.310;9.642;2023-06-10T04:35:17;4.43;;;3.38;;
78648;SDS011;67962;47.310;9.642;2023-06-10T04:37:42;4.70;;;3.78;;
78648;SDS011;67962;47.310;9.642;2023-06-10T04:40:08;6.85;;;3.85;;
78648;SDS011;67962;47.310;9.642;2023-06-10T04:42:35;7.45;;;3.53;;
78648;SDS011;67962;47.310;9.642;2023-06-10T04:45:01;6.15;;;4.20;;
78648;SDS011;67962;47.310;9.642;2023-06-10T04:47:27;5.35;;;3.83;;
78648;SDS011;67962;47.310;9.642;2023-06-10T04:49:53;6.07;;;3.80;;
78648;SDS011;67962;47.310;9.642;2023-06-10T04:52:19;5.38;;;3.67;;
78648;SDS011;67962;47.310;9.642;2023-06-10T04:54:44;6.38;;;4.25;;
78648;SDS011;67962;47.310;9.642;2023-06-10T04:57:10;9.63;;;4.10;;
78648;SDS011;67962;47.310;9.642;2023-06-10T04:59:36;4.90;;;3.25;;
78648;SDS011;67962;47.310;9.642;2023-06-10T05:02:06;5.57;;;3.67;;
78648;SDS011;67962;47.310;9.642;2023-06-10T05:04:31;5.15;;;3.90;;
78648;SDS011;67962;47.310;9.642;2023-06-10T05:06:57;5.22;;;3.50;;
78648;SDS011;67962;47.310;9.642;2023-06-10T05:09:23;6.18;;;3.58;;
78648;SDS011;67962;47.310;9.642;2023-06-10T05:11:48;5.38;;;3.75;;
78648;SDS011;67962;47.310;9.642;2023-06-10T05:14:14;4.72;;;3.50;;
78648;SDS011;67962;47.310;9.642;2023-06-10T05:16:44;5.32;;;3.35;;
78648;SDS011;67962;47.310;9.642;2023-06-10T05:19:09;6.25;;;3.45;;
78648;SDS011;67962;47.310;9.642;2023-06-10T05:21:36;5.15;;;3.80;;
78648;SDS011;67962;47.310;9.642;2023-06-10T05:24:02;10.30;;;3.90;;
78648;SDS011;67962;47.310;9.642;2023-06-10T05:26:28;7.22;;;4.30;;
78648;SDS011;67962;47.310;9.642;2023-06-10T05:28:54;7.20;;;4.15;;
78648;SDS011;67962;47.310;9.642;2023-06-10T05:31:19;7.93;;;3.92;;
78648;SDS011;67962;47.310;9.642;2023-06-10T05:33:45;6.28;;;3.55;;
78648;SDS011;67962;47.310;9.642;2023-06-10T05:36:11;6.32;;;4.47;;
78648;SDS011;67962;47.310;9.642;2023-06-10T05:38:36;6.82;;;4.00;;
78648;SDS011;67962;47.310;9.642;2023-06-10T05:41:02;5.75;;;4.15;;
78648;SDS011;67962;47.310;9.642;2023-06-10T05:43:28;6.93;;;4.10;;
78648;SDS011;67962;47.310;9.642;2023-06-10T05:45:54;7.53;;;4.57;;
78648;SDS011;67962;47.310;9.642;2023-06-10T05:48:20;6.40;;;4.75;;
78648;SDS011;67962;47.310;9.642;2023-06-10T05:50:46;5.18;;;4.05;;
78648;SDS011;67962;47.310;9.642;2023-06-10T05:53:14;5.88;;;4.22;;
78648;SDS011;67962;47.310;9.642;2023-06-10T05:55:43;6.15;;;4.28;;
78648;SDS011;67962;47.310;9.642;2023-06-10T05:58:10;6.60;;;4.20;;
78648;SDS011;67962;47.310;9.642;2023-06-10T06:00:37;5.90;;;4.43;;
78648;SDS011;67962;47.310;9.642;2023-06-10T06:03:05;5.75;;;4.20;;
78648;SDS011;67962;47.310;9.642;2023-06-10T06:05:31;6.35;;;4.53;;
78648;SDS011;67962;47.310;9.642;2023-06-10T06:08:00;7.25;;;4.43;;
78648;SDS011;67962;47.310;9.642;2023-06-10T06:10:26;6.07;;;4.37;;
78648;SDS011;67962;47.310;9.642;2023-06-10T06:12:52;8.07;;;4.55;;
78648;SDS011;67962;47.310;9.642;2023-06-10T06:15:18;6.45;;;4.60;;
78648;SDS011;67962;47.310;9.642;2023-06-10T06:17:43;5.18;;;3.90;;
78648;SDS011;67962;47.310;9.642;2023-06-10T06:20:09;7.85;;;4.75;;
78648;SDS011;67962;47.310;9.642;2023-06-10T06:22:36;7.85;;;4.38;;
78648;SDS011;67962;47.310;9.642;2023-06-10T06:25:02;6.75;;;4.60;;
78648;SDS011;67962;47.310;9.642;2023-06-10T06:27:28;11.85;;;4.70;;
78648;SDS011;67962;47.310;9.642;2023-06-10T06:29:53;6.28;;;4.43;;
78648;SDS011;67962;47.310;9.642;2023-06-10T06:32:19;6.00;;;4.53;;
78648;SDS011;67962;47.310;9.642;2023-06-10T06:34:47;6.10;;;4.45;;
78648;SDS011;67962;47.310;9.642;2023-06-10T06:37:14;8.13;;;4.38;;
78648;SDS011;67962;47.310;9.642;2023-06-10T06:39:40;6.47;;;4.82;;
78648;SDS011;67962;47.310;9.642;2023-06-10T06:42:06;7.60;;;5.10;;
78648;SDS011;67962;47.310;9.642;2023-06-10T06:44:32;7.15;;;5.10;;
78648;SDS011;67962;47.310;9.642;2023-06-10T06:46:57;6.18;;;4.70;;
78648;SDS011;67962;47.310;9.642;2023-06-10T06:49:23;6.63;;;4.75;;
78648;SDS011;67962;47.310;9.642;2023-06-10T06:51:49;9.15;;;5.03;;
78648;SDS011;67962;47.310;9.642;2023-06-10T06:54:14;9.45;;;4.65;;
78648;SDS011;67962;47.310;9.642;2023-06-10T06:56:40;10.65;;;6.00;;
78648;SDS011;67962;47.310;9.642;2023-06-10T06:59:06;8.00;;;5.78;;
78648;SDS011;67962;47.310;9.642;2023-06-10T07:01:32;9.30;;;5.68;;
78648;SDS011;67962;47.310;9.642;2023-06-10T07:03:59;7.88;;;5.88;;
78648;SDS011;67962;47.310;9.642;2023-06-10T07:06:25;8.95;;;5.88;;
78648;SDS011;67962;47.310;9.642;2023-06-10T07:08:50;7.68;;;5.63;;
78648;SDS011;67962;47.310;9.642;2023-06-10T07:11:16;8.73;;;5.85;;
78648;SDS011;67962;47.310;9.642;2023-06-10T07:13:42;9.18;;;5.82;;
78648;SDS011;67962;47.310;9.642;2023-06-10T07:16:08;9.38;;;6.50;;
78648;SDS011;67962;47.310;9.642;2023-06-10T07:18:34;10.18;;;6.28;;
78648;SDS011;67962;47.310;9.642;2023-06-10T07:20:59;8.63;;;6.00;;
78648;SDS011;67962;47.310;9.642;2023-06-10T07:23:25;9.50;;;6.22;;
78648;SDS011;67962;47.310;9.642;2023-06-10T07:25:51;11.73;;;5.97;;
78648;SDS011;67962;47.310;9.642;2023-06-10T07:28:16;7.55;;;5.22;;
78648;SDS011;67962;47.310;9.642;2023-06-10T07:30:42;8.02;;;5.85;;
78648;SDS011;67962;47.310;9.642;2023-06-10T07:33:08;9.60;;;5.85;;
78648;SDS011;67962;47.310;9.642;2023-06-10T07:35:35;7.72;;;5.60;;
78648;SDS011;67962;47.310;9.642;2023-06-10T07:38:01;8.98;;;5.60;;
78648;SDS011;67962;47.310;9.642;2023-06-10T07:40:26;10.23;;;6.00;;
78648;SDS011;67962;47.310;9.642;2023-06-10T07:42:52;7.72;;;5.97;;
78648;SDS011;67962;47.310;9.642;2023-06-10T07:45:18;8.90;;;5.82;;
78648;SDS011;67962;47.310;9.642;2023-06-10T07:47:44;8.68;;;6.38;;
78648;SDS011;67962;47.310;9.642;2023-06-10T07:50:10;7.78;;;5.10;;
78648;SDS011;67962;47.310;9.642;2023-06-10T07:52:35;8.68;;;5.95;;
78648;SDS011;67962;47.310;9.642;2023-06-10T07:55:01;9.68;;;6.03;;
78648;SDS011;67962;47.310;9.642;2023-06-10T07:57:27;8.20;;;6.22;;
78648;SDS011;67962;47.310;9.642;2023-06-10T07:59:53;8.18;;;5.68;;
78648;SDS011;67962;47.310;9.642;2023-06-10T08:02:20;9.57;;;6.18;;
78648;SDS011;67962;47.310;9.642;2023-06-10T08:04:45;11.85;;;6.22;;
78648;SDS011;67962;47.310;9.642;2023-06-10T08:07:11;10.30;;;6.55;;
78648;SDS011;67962;47.310;9.642;2023-06-10T08:09:37;9.50;;;6.35;;
78648;SDS011;67962;47.310;9.642;2023-06-10T08:12:02;7.65;;;6.07;;
78648;SDS011;67962;47.310;9.642;2023-06-10T08:14:28;9.40;;;6.18;;
78648;SDS011;67962;47.310;9.642;2023-06-10T08:16:54;7.40;;;6.10;;
78648;SDS011;67962;47.310;9.642;2023-06-10T08:19:20;7.70;;;6.20;;
78648;SDS011;67962;47.310;9.642;2023-06-10T08:21:46;8.35;;;6.13;;
78648;SDS011;67962;47.310;9.642;2023-06-10T08:24:11;9.63;;;6.43;;
78648;SDS011;67962;47.310;9.642;2023-06-10T08:26:39;8.30;;;6.13;;
78648;SDS011;67962;47.310;9.642;2023-06-10T08:29:05;10.35;;;6.60;;
78648;SDS011;67962;47.310;9.642;2023-06-10T08:31:30;9.98;;;6.88;;
78648;SDS011;67962;47.310;9.642;2023-06-10T08:33:56;8.82;;;6.35;;
78648;SDS011;67962;47.310;9.642;2023-06-10T08:36:21;7.65;;;6.35;;
78648;SDS011;67962;47.310;9.642;2023-06-10T08:38:47;9.25;;;6.72;;
78648;SDS011;67962;47.310;9.642;2023-06-10T08:41:14;12.85;;;6.30;;
78648;SDS011;67962;47.310;9.642;2023-06-10T08:43:46;9.10;;;6.53;;
78648;SDS011;67962;47.310;9.642;2023-06-10T08:46:18;8.88;;;6.05;;
78648;SDS011;67962;47.310;9.642;2023-06-10T08:48:44;11.73;;;6.32;;
78648;SDS011;67962;47.310;9.642;2023-06-10T08:51:14;10.27;;;6.40;;
78648;SDS011;67962;47.310;9.642;2023-06-10T08:53:46;8.10;;;6.05;;
78648;SDS011;67962;47.310;9.642;2023-06-10T08:56:18;9.75;;;6.78;;
78648;SDS011;67962;47.310;9.642;2023-06-10T08:58:44;15.85;;;6.80;;
78648;SDS011;67962;47.310;9.642;2023-06-10T09:01:10;7.47;;;5.90;;
78648;SDS011;67962;47.310;9.642;2023-06-10T09:03:38;9.55;;;6.18;;
78648;SDS011;67962;47.310;9.642;2023-06-10T09:06:04;114.15;;;8.55;;
78648;SDS011;67962;47.310;9.642;2023-06-10T09:08:31;8.63;;;6.60;;
78648;SDS011;67962;47.310;9.642;2023-06-10T09:10:58;10.82;;;6.82;;
78648;SDS011;67962;47.310;9.642;2023-06-10T09:13:24;9.18;;;6.38;;
78648;SDS011;67962;47.310;9.642;2023-06-10T09:15:50;8.50;;;6.30;;
78648;SDS011;67962;47.310;9.642;2023-06-10T09:18:16;10.25;;;6.43;;
78648;SDS011;67962;47.310;9.642;2023-06-10T09:20:42;11.00;;;7.15;;
78648;SDS011;67962;47.310;9.642;2023-06-10T09:23:08;9.02;;;6.93;;
78648;SDS011;67962;47.310;9.642;2023-06-10T09:25:38;12.43;;;7.72;;
78648;SDS011;67962;47.310;9.642;2023-06-10T09:28:04;10.05;;;6.53;;
78648;SDS011;67962;47.310;9.642;2023-06-10T09:30:31;10.23;;;6.45;;
78648;SDS011;67962;47.310;9.642;2023-06-10T09:32:58;10.80;;;7.25;;
78648;SDS011;67962;47.310;9.642;2023-06-10T09:35:28;9.20;;;6.70;;
78648;SDS011;67962;47.310;9.642;2023-06-10T09:37:56;11.32;;;7.25;;
78648;SDS011;67962;47.310;9.642;2023-06-10T09:40:23;9.93;;;7.63;;
78648;SDS011;67962;47.310;9.642;2023-06-10T09:42:52;8.55;;;6.72;;
78648;SDS011;67962;47.310;9.642;2023-06-10T09:45:20;7.38;;;5.85;;
78648;SDS011;67962;47.310;9.642;2023-06-10T09:47:47;8.95;;;6.90;;
78648;SDS011;67962;47.310;9.642;2023-06-10T09:50:16;9.82;;;7.03;;
78648;SDS011;67962;47.310;9.642;2023-06-10T09:52:42;10.65;;;7.50;;
78648;SDS011;67962;47.310;9.642;2023-06-10T09:55:10;8.18;;;6.55;;
78648;SDS011;67962;47.310;9.642;2023-06-10T09:57:36;10.27;;;6.13;;
78648;SDS011;67962;47.310;9.642;2023-06-10T10:00:05;8.38;;;6.05;;
78648;SDS011;67962;47.310;9.642;2023-06-10T10:02:33;10.85;;;8.13;;
78648;SDS011;67962;47.310;9.642;2023-06-10T10:05:10;10.48;;;7.03;;
78648;SDS011;67962;47.310;9.642;2023-06-10T10:07:38;9.63;;;6.47;;
78648;SDS011;67962;47.310;9.642;2023-06-10T10:10:04;12.60;;;7.07;;
78648;SDS011;67962;47.310;9.642;2023-06-10T10:12:31;8.23;;;6.45;;
78648;SDS011;67962;47.310;9.642;2023-06-10T10:14:57;9.75;;;6.95;;
78648;SDS011;67962;47.310;9.642;2023-06-10T10:17:24;7.97;;;6.10;;
78648;SDS011;67962;47.310;9.642;2023-06-10T10:19:53;10.68;;;6.82;;
78648;SDS011;67962;47.310;9.642;2023-06-10T10:22:26;10.45;;;7.20;;
78648;SDS011;67962;47.310;9.642;2023-06-10T10:24:58;8.82;;;6.88;;
78648;SDS011;67962;47.310;9.642;2023-06-10T10:27:28;9.20;;;6.80;;
78648;SDS011;67962;47.310;9.642;2023-06-10T10:30:14;11.95;;;7.40;;
78648;SDS011;67962;47.310;9.642;2023-06-10T10:35:17;7.22;;;5.78;;
78648;SDS011;67962;47.310;9.642;2023-06-10T10:37:46;8.75;;;6.38;;
78648;SDS011;67962;47.310;9.642;2023-06-10T10:40:12;8.57;;;5.93;;
78648;SDS011;67962;47.310;9.642;2023-06-10T10:42:39;7.82;;;5.82;;
78648;SDS011;67962;47.310;9.642;2023-06-10T10:45:06;7.80;;;5.97;;
78648;SDS011;67962;47.310;9.642;2023-06-10T10:47:33;7.45;;;6.03;;
78648;SDS011;67962;47.310;9.642;2023-06-10T10:50:01;8.10;;;5.88;;
78648;SDS011;67962;47.310;9.642;2023-06-10T10:55:24;7.10;;;5.97;;
78648;SDS011;67962;47.310;9.642;2023-06-10T11:00:36;6.68;;;5.55;;
78648;SDS011;67962;47.310;9.642;2023-06-10T11:03:14;7.20;;;5.60;;
78648;SDS011;67962;47.310;9.642;2023-06-10T11:05:45;6.55;;;5.78;;
78648;SDS011;67962;47.310;9.642;2023-06-10T11:09:00;8.73;;;6.32;;
78648;SDS011;67962;47.310;9.642;2023-06-10T11:11:00;6.90;;;5.38;;
78648;SDS011;67962;47.310;9.642;2023-06-10T11:13:42;12.18;;;5.90;;
78648;SDS011;67962;47.310;9.642;2023-06-10T11:16:41;7.85;;;6.03;;
78648;SDS011;67962;47.310;9.642;2023-06-10T11:19:08;8.70;;;6.10;;
78648;SDS011;67962;47.310;9.642;2023-06-10T11:24:24;6.53;;;5.45;;
78648;SDS011;67962;47.310;9.642;2023-06-10T11:26:51;7.20;;;5.28;;
78648;SDS011;67962;47.310;9.642;2023-06-10T11:29:16;10.52;;;5.30;;
78648;SDS011;67962;47.310;9.642;2023-06-10T11:31:48;7.13;;;5.90;;
78648;SDS011;67962;47.310;9.642;2023-06-10T11:34:15;7.30;;;6.03;;
78648;SDS011;67962;47.310;9.642;2023-06-10T11:36:51;9.93;;;4.88;;
78648;SDS011;67962;47.310;9.642;2023-06-10T11:39:19;7.38;;;5.28;;
78648;SDS011;67962;47.310;9.642;2023-06-10T11:41:46;6.25;;;4.97;;
78648;SDS011;67962;47.310;9.642;2023-06-10T11:44:12;5.88;;;4.90;;
78648;SDS011;67962;47.310;9.642;2023-06-10T11:46:38;5.95;;;4.30;;
78648;SDS011;67962;47.310;9.642;2023-06-10T11:49:05;6.32;;;4.80;;
78648;SDS011;67962;47.310;9.642;2023-06-10T11:51:35;6.70;;;5.30;;
78648;SDS011;67962;47.310;9.642;2023-06-10T11:54:02;8.13;;;5.50;;
78648;SDS011;67962;47.310;9.642;2023-06-10T11:56:30;5.55;;;4.88;;
78648;SDS011;67962;47.310;9.642;2023-06-10T11:58:57;6.97;;;4.70;;
78648;SDS011;67962;47.310;9.642;2023-06-10T12:01:32;5.80;;;5.05;;
78648;SDS011;67962;47.310;9.642;2023-06-10T12:06:26;6.75;;;4.85;;
78648;SDS011;67962;47.310;9.642;2023-06-10T12:08:53;6.93;;;4.75;;
78648;SDS011;67962;47.310;9.642;2023-06-10T12:11:19;6.07;;;4.97;;
78648;SDS011;67962;47.310;9.642;2023-06-10T12:13:46;6.65;;;4.75;;
78648;SDS011;67962;47.310;9.642;2023-06-10T12:16:14;6.45;;;4.93;;
78648;SDS011;67962;47.310;9.642;2023-06-10T12:18:41;8.65;;;5.10;;
78648;SDS011;67962;47.310;9.642;2023-06-10T12:21:17;8.32;;;4.90;;
78648;SDS011;67962;47.310;9.642;2023-06-10T12:24:00;7.80;;;4.88;;
78648;SDS011;67962;47.310;9.642;2023-06-10T12:29:23;5.75;;;4.47;;
78648;SDS011;67962;47.310;9.642;2023-06-10T12:32:01;6.05;;;5.13;;
78648;SDS011;67962;47.310;9.642;2023-06-10T12:34:36;6.50;;;4.97;;
78648;SDS011;67962;47.310;9.642;2023-06-10T12:37:04;7.93;;;5.15;;
78648;SDS011;67962;47.310;9.642;2023-06-10T12:39:38;7.38;;;5.78;;
78648;SDS011;67962;47.310;9.642;2023-06-10T12:42:04;11.15;;;5.03;;
78648;SDS011;67962;47.310;9.642;2023-06-10T12:44:34;7.15;;;5.45;;
78648;SDS011;67962;47.310;9.642;2023-06-10T12:47:08;11.43;;;5.97;;
78648;SDS011;67962;47.310;9.642;2023-06-10T12:49:35;10.27;;;6.30;;
78648;SDS011;67962;47.310;9.642;2023-06-10T12:52:02;6.72;;;5.80;;
78648;SDS011;67962;47.310;9.642;2023-06-10T12:54:28;6.82;;;5.38;;
78648;SDS011;67962;47.310;9.642;2023-06-10T12:56:54;7.97;;;5.55;;
78648;SDS011;67962;47.310;9.642;2023-06-10T12:59:19;6.20;;;5.30;;
78648;SDS011;67962;47.310;9.642;2023-06-10T13:01:51;13.48;;;5.88;;
78648;SDS011;67962;47.310;9.642;2023-06-10T13:04:17;6.38;;;5.43;;
78648;SDS011;67962;47.310;9.642;2023-06-10T13:06:43;8.55;;;5.47;;
78648;SDS011;67962;47.310;9.642;2023-06-10T13:09:09;9.23;;;6.65;;
78648;SDS011;67962;47.310;9.642;2023-06-10T13:11:35;7.75;;;5.57;;
78648;SDS011;67962;47.310;9.642;2023-06-10T13:14:01;9.25;;;5.25;;
78648;SDS011;67962;47.310;9.642;2023-06-10T13:16:28;9.65;;;6.25;;
78648;SDS011;67962;47.310;9.642;2023-06-10T13:18:53;7.85;;;5.68;;
78648;SDS011;67962;47.310;9.642;2023-06-10T13:21:19;8.80;;;5.38;;
78648;SDS011;67962;47.310;9.642;2023-06-10T13:23:46;8.55;;;4.93;;
78648;SDS011;67962;47.310;9.642;2023-06-10T13:26:16;6.57;;;5.20;;
78648;SDS011;67962;47.310;9.642;2023-06-10T13:28:42;7.53;;;5.75;;
78648;SDS011;67962;47.310;9.642;2023-06-10T13:31:08;6.30;;;4.95;;
78648;SDS011;67962;47.310;9.642;2023-06-10T13:33:34;7.88;;;5.15;;
78648;SDS011;67962;47.310;9.642;2023-06-10T13:36:00;8.40;;;5.18;;
78648;SDS011;67962;47.310;9.642;2023-06-10T13:38:25;6.72;;;5.20;;
78648;SDS011;67962;47.310;9.642;2023-06-10T13:40:51;4.80;;;4.25;;
78648;SDS011;67962;47.310;9.642;2023-06-10T13:43:17;6.78;;;4.82;;
78648;SDS011;67962;47.310;9.642;2023-06-10T13:45:42;5.88;;;4.55;;
78648;SDS011;67962;47.310;9.642;2023-06-10T13:48:08;5.38;;;4.28;;
78648;SDS011;67962;47.310;9.642;2023-06-10T13:50:34;6.03;;;4.72;;
78648;SDS011;67962;47.310;9.642;2023-06-10T13:53:00;5.32;;;4.32;;
78648;SDS011;67962;47.310;9.642;2023-06-10T13:55:25;5.50;;;4.10;;
78648;SDS011;67962;47.310;9.642;2023-06-10T13:57:51;7.28;;;4.60;;
78648;SDS011;67962;47.310;9.642;2023-06-10T14:00:17;6.13;;;4.82;;
78648;SDS011;67962;47.310;9.642;2023-06-10T14:02:43;5.32;;;4.10;;
78648;SDS011;67962;47.310;9.642;2023-06-10T14:05:09;6.32;;;4.72;;
78648;SDS011;67962;47.310;9.642;2023-06-10T14:07:35;6.13;;;4.47;;
78648;SDS011;67962;47.310;9.642;2023-06-10T14:10:02;6.38;;;4.53;;
78648;SDS011;67962;47.310;9.642;2023-06-10T14:12:28;7.75;;;4.60;;
78648;SDS011;67962;47.310;9.642;2023-06-10T14:14:54;5.25;;;4.53;;
78648;SDS011;67962;47.310;9.642;2023-06-10T14:17:19;6.40;;;4.80;;
78648;SDS011;67962;47.310;9.642;2023-06-10T14:19:45;5.88;;;4.43;;
78648;SDS011;67962;47.310;9.642;2023-06-10T14:22:11;4.63;;;4.00;;
78648;SDS011;67962;47.310;9.642;2023-06-10T14:24:37;6.20;;;4.10;;
78648;SDS011;67962;47.310;9.642;2023-06-10T14:27:03;5.15;;;4.00;;
78648;SDS011;67962;47.310;9.642;2023-06-10T14:29:29;6.32;;;4.20;;
78648;SDS011;67962;47.310;9.642;2023-06-10T14:31:56;6.57;;;4.28;;
78648;SDS011;67962;47.310;9.642;2023-06-10T14:34:22;4.90;;;3.83;;
78648;SDS011;67962;47.310;9.642;2023-06-10T14:36:53;5.47;;;4.43;;
78648;SDS011;67962;47.310;9.642;2023-06-10T14:39:19;4.97;;;4.03;;
78648;SDS011;67962;47.310;9.642;2023-06-10T14:41:45;4.65;;;4.15;;
78648;SDS011;67962;47.310;9.642;2023-06-10T14:44:10;6.30;;;4.30;;
78648;SDS011;67962;47.310;9.642;2023-06-10T14:46:36;5.70;;;4.20;;
78648;SDS011;67962;47.310;9.642;2023-06-10T14:49:02;9.30;;;3.90;;
78648;SDS011;67962;47.310;9.642;2023-06-10T14:51:28;8.40;;;4.07;;
78648;SDS011;67962;47.310;9.642;2023-06-10T14:53:53;4.75;;;3.88;;
78648;SDS011;67962;47.310;9.642;2023-06-10T14:56:19;7.47;;;3.92;;
78648;SDS011;67962;47.310;9.642;2023-06-10T14:58:44;5.88;;;4.32;;
78648;SDS011;67962;47.310;9.642;2023-06-10T15:01:10;5.35;;;4.13;;
78648;SDS011;67962;47.310;9.642;2023-06-10T15:03:36;4.82;;;4.18;;
78648;SDS011;67962;47.310;9.642;2023-06-10T15:06:01;4.38;;;3.97;;